Terminal Aerodrome Forecast
Issued by NWS New Orleans/Baton Rouge, LA

Home | Current Version | Previous Version | Text Only | Print | Product List | Glossary On
Versions: 1 2 3 4 5 6 7 8 9 10 11 12 13 14 15 16 17 18 19 20 21 22 23 24 25 26 27
000
FTUS44 KLIX 221900 AAA
TAFNEW
TAF AMD
KNEW 221905Z 2219/2318 31007KT P6SM SCT050
      TEMPO 2219/2221 VRB15KT TSRA BKN040CB
     FM222100 02008KT P6SM BKN050
     FM230200 04014KT P6SM SCT250
     FM230500 05019G28KT P6SM FEW250
     FM231500 06014KT P6SM SCT250=

USA.gov is the U.S. government's official web portal to all federal, state and local government web resources and services.